createdAt,value
2022-12-08T00:00:22.879Z,91.99
2022-12-08T00:01:22.885Z,91.99
2022-12-08T00:02:22.978Z,91.85
2022-12-08T00:03:23.029Z,91.85
2022-12-08T00:04:22.848Z,91.85
2022-12-08T00:05:22.862Z,91.74
2022-12-08T00:06:22.819Z,91.64
2022-12-08T00:07:22.818Z,91.53
2022-12-08T00:08:22.852Z,91.43
2022-12-08T00:09:22.809Z,91.53
2022-12-08T00:10:47.687Z,91.53
2022-12-08T00:11:23.788Z,91.43
2022-12-08T00:12:22.766Z,91.43
2022-12-08T00:13:22.756Z,91.43
2022-12-08T00:14:22.728Z,91.53
2022-12-08T00:15:22.740Z,91.53
2022-12-08T00:16:22.845Z,91.64
2022-12-08T00:17:22.718Z,91.85
2022-12-08T00:18:22.689Z,91.95
2022-12-08T00:19:22.679Z,91.95
2022-12-08T00:20:22.669Z,92.05
2022-12-08T00:21:22.660Z,92.05
2022-12-08T00:22:22.657Z,92.16
2022-12-08T00:23:22.639Z,92.05
2022-12-08T00:24:22.619Z,92.05
2022-12-08T00:25:22.620Z,92.05
2022-12-08T00:26:22.739Z,92.16
2022-12-08T00:27:22.597Z,92.05
2022-12-08T00:28:22.591Z,91.95
2022-12-08T00:29:22.577Z,91.95
2022-12-08T00:30:22.569Z,91.95
2022-12-08T00:31:22.616Z,91.95
2022-12-08T00:32:22.634Z,91.95
2022-12-08T00:33:22.549Z,91.95
2022-12-08T00:34:22.529Z,91.95
2022-12-08T00:35:22.530Z,92.05
2022-12-08T00:36:22.501Z,92.05
2022-12-08T00:37:22.500Z,92.16
2022-12-08T00:38:22.489Z,92.16
2022-12-08T00:39:22.499Z,92.26
2022-12-08T00:40:22.477Z,92.30
2022-12-08T00:41:22.477Z,92.30
2022-12-08T00:42:22.460Z,92.30
2022-12-08T00:43:22.475Z,92.30
2022-12-08T00:44:22.427Z,92.20
2022-12-08T00:45:22.423Z,92.20
2022-12-08T00:46:22.476Z,92.10
2022-12-08T00:47:24.941Z,92.20
2022-12-08T00:48:22.389Z,92.30
2022-12-08T00:49:22.377Z,92.20
2022-12-08T00:50:22.351Z,92.20
2022-12-08T00:51:22.358Z,92.20
2022-12-08T00:52:22.375Z,92.14
2022-12-08T00:53:22.345Z,92.24
2022-12-08T00:54:22.331Z,92.14
2022-12-08T00:55:22.321Z,92.14
2022-12-08T00:56:22.309Z,92.24
2022-12-08T00:57:22.309Z,92.24
2022-12-08T00:58:22.261Z,92.24
2022-12-08T00:59:22.271Z,92.24
2022-12-08T01:00:22.281Z,92.24
2022-12-08T01:01:22.351Z,92.35
2022-12-08T01:02:22.231Z,92.35
2022-12-08T01:03:22.291Z,92.49
2022-12-08T01:04:22.231Z,92.60
2022-12-08T01:05:22.203Z,92.60
2022-12-08T01:06:22.192Z,92.70
2022-12-08T01:07:22.194Z,93.01
2022-12-08T01:08:22.271Z,93.12
2022-12-08T01:09:22.162Z,93.12
2022-12-08T01:10:22.173Z,93.23
2022-12-08T01:11:22.154Z,93.12
2022-12-08T01:12:22.132Z,93.12
2022-12-08T01:13:22.151Z,93.01
2022-12-08T01:14:22.113Z,92.91
2022-12-08T01:15:22.102Z,93.23
2022-12-08T01:16:22.140Z,93.48
2022-12-08T01:17:22.072Z,93.58
2022-12-08T01:18:22.063Z,93.68
2022-12-08T01:19:22.062Z,93.68
2022-12-08T01:20:22.051Z,93.68
2022-12-08T01:21:22.032Z,93.58
2022-12-08T01:22:22.031Z,93.48
2022-12-08T01:23:22.016Z,93.16
2022-12-08T01:24:22.012Z,93.05
2022-12-08T01:25:22.001Z,92.95
2022-12-08T01:26:21.972Z,92.95
2022-12-08T01:27:21.972Z,92.99
2022-12-08T01:28:21.957Z,92.89
2022-12-08T01:29:21.961Z,92.99
2022-12-08T01:30:21.943Z,93.31
2022-12-08T01:31:22.068Z,93.41
2022-12-08T01:32:21.922Z,93.41
2022-12-08T01:33:21.923Z,93.52
2022-12-08T01:34:21.925Z,93.73
2022-12-08T01:35:21.892Z,93.83
2022-12-08T01:36:21.873Z,93.93
2022-12-08T01:37:21.882Z,94.08
2022-12-08T01:38:21.851Z,94.18
2022-12-08T01:39:21.842Z,94.29
2022-12-08T01:40:21.829Z,94.18
2022-12-08T01:41:21.834Z,94.39
2022-12-08T01:42:21.834Z,94.49
2022-12-08T01:43:21.818Z,94.49
2022-12-08T01:44:21.782Z,94.60
2022-12-08T01:45:21.793Z,94.60
2022-12-08T01:46:21.821Z,94.60
2022-12-08T01:47:21.773Z,94.60
2022-12-08T01:48:21.815Z,94.60
2022-12-08T01:49:21.762Z,94.49
2022-12-08T01:50:21.722Z,94.39
2022-12-08T01:51:21.738Z,94.29
2022-12-08T01:52:21.728Z,94.39
2022-12-08T01:53:21.696Z,94.43
2022-12-08T01:54:21.689Z,94.54
2022-12-08T01:55:21.711Z,94.64
2022-12-08T01:56:21.675Z,94.64
2022-12-08T01:57:21.678Z,94.85
2022-12-08T01:58:21.653Z,94.96
2022-12-08T01:59:21.646Z,95.17
2022-12-08T02:00:21.615Z,95.27
2022-12-08T02:01:21.651Z,95.27
2022-12-08T02:02:21.702Z,95.27
2022-12-08T02:03:21.615Z,95.17
2022-12-08T02:04:21.584Z,95.17
2022-12-08T02:05:21.584Z,95.17
2022-12-08T02:06:21.564Z,95.17
2022-12-08T02:07:21.563Z,95.27
2022-12-08T02:08:21.552Z,95.17
2022-12-08T02:09:21.556Z,95.17
2022-12-08T02:10:21.534Z,95.17
2022-12-08T02:11:21.504Z,95.17
2022-12-08T02:12:21.513Z,95.27
2022-12-08T02:13:21.495Z,95.27
2022-12-08T02:14:21.473Z,95.42
2022-12-08T02:15:21.465Z,95.42
2022-12-08T02:16:21.599Z,95.62
2022-12-08T02:17:21.444Z,95.62
2022-12-08T02:18:21.425Z,95.94
2022-12-08T02:19:30.632Z,96.00
2022-12-08T02:20:22.405Z,96.04
2022-12-08T02:21:21.405Z,96.04
2022-12-08T02:22:21.384Z,95.94
2022-12-08T02:23:21.394Z,95.94
2022-12-08T02:24:21.391Z,95.94
2022-12-08T02:25:21.357Z,95.73
2022-12-08T02:26:21.364Z,95.62
2022-12-08T02:27:21.363Z,95.42
2022-12-08T02:28:21.368Z,95.31
2022-12-08T02:29:21.332Z,95.31
2022-12-08T02:30:21.316Z,95.31
2022-12-08T02:31:21.345Z,95.31
2022-12-08T02:32:21.290Z,95.10
2022-12-08T02:33:21.287Z,95.00
2022-12-08T02:34:21.264Z,94.69
2022-12-08T02:35:21.392Z,94.69
2022-12-08T02:36:21.246Z,94.58
2022-12-08T02:37:21.246Z,94.48
2022-12-08T02:38:21.259Z,94.48
2022-12-08T02:39:21.239Z,94.37
2022-12-08T02:40:21.209Z,94.37
2022-12-08T02:41:21.195Z,94.27
2022-12-08T02:42:21.193Z,94.17
2022-12-08T02:43:21.176Z,94.31
2022-12-08T02:44:21.141Z,94.42
2022-12-08T02:45:21.129Z,94.52
2022-12-08T02:46:21.195Z,94.52
2022-12-08T02:47:21.108Z,94.52
2022-12-08T02:48:21.101Z,94.42
2022-12-08T02:49:21.084Z,94.42
2022-12-08T02:50:21.079Z,94.42
2022-12-08T02:51:21.080Z,94.42
2022-12-08T02:52:21.058Z,94.52
2022-12-08T02:53:21.049Z,94.63
2022-12-08T02:54:21.061Z,94.84
2022-12-08T02:55:21.026Z,94.84
2022-12-08T02:56:21.026Z,94.84
2022-12-08T02:57:21.002Z,94.73
2022-12-08T02:58:21.000Z,94.73
2022-12-08T02:59:20.979Z,94.52
2022-12-08T03:00:20.990Z,94.52
2022-12-08T03:01:21.063Z,94.31
2022-12-08T03:02:21.013Z,94.46
2022-12-08T03:03:20.940Z,94.46
2022-12-08T03:04:20.930Z,94.57
2022-12-08T03:05:20.921Z,94.46
2022-12-08T03:06:20.910Z,94.57
2022-12-08T03:07:20.901Z,94.57
2022-12-08T03:08:20.968Z,94.57
2022-12-08T03:09:20.891Z,94.57
2022-12-08T03:10:20.872Z,94.46
2022-12-08T03:11:20.862Z,94.35
2022-12-08T03:12:20.853Z,94.35
2022-12-08T03:13:20.837Z,94.35
2022-12-08T03:14:20.841Z,94.35
2022-12-08T03:15:20.819Z,94.67
2022-12-08T03:16:20.910Z,94.78
2022-12-08T03:17:20.793Z,94.78
2022-12-08T03:18:20.794Z,94.78
2022-12-08T03:19:20.790Z,94.78
2022-12-08T03:20:20.770Z,94.67
2022-12-08T03:21:20.770Z,94.57
2022-12-08T03:22:20.745Z,94.46
2022-12-08T03:23:20.730Z,94.35
2022-12-08T03:24:20.737Z,94.25
2022-12-08T03:25:20.722Z,94.35
2022-12-08T03:26:20.701Z,94.50
2022-12-08T03:27:20.689Z,94.50
2022-12-08T03:28:20.683Z,94.50
2022-12-08T03:29:20.691Z,94.40
2022-12-08T03:30:20.662Z,94.29
2022-12-08T03:31:20.689Z,94.40
2022-12-08T03:32:20.661Z,94.50
2022-12-08T03:33:20.621Z,94.50
2022-12-08T03:34:20.645Z,94.50
2022-12-08T03:35:20.601Z,94.50
2022-12-08T03:36:20.620Z,94.61
2022-12-08T03:37:20.595Z,94.50
2022-12-08T03:38:20.571Z,94.40
2022-12-08T03:39:20.561Z,94.40
2022-12-08T03:40:20.556Z,94.40
2022-12-08T03:41:20.550Z,94.40
2022-12-08T03:42:20.541Z,94.29
2022-12-08T03:43:20.521Z,94.13
2022-12-08T03:44:20.511Z,94.13
2022-12-08T03:45:20.501Z,94.23
2022-12-08T03:46:56.857Z,94.19
2022-12-08T03:47:56.837Z,94.23
2022-12-08T03:48:56.830Z,94.34
2022-12-08T03:49:56.826Z,94.34
2022-12-08T03:50:56.821Z,94.34
2022-12-08T03:51:56.809Z,94.44
2022-12-08T03:52:56.788Z,94.44
2022-12-08T03:53:56.778Z,94.44
2022-12-08T03:54:56.790Z,94.44
2022-12-08T03:55:56.778Z,94.44
2022-12-08T03:56:56.748Z,94.55
2022-12-08T03:57:56.737Z,94.65
2022-12-08T03:58:56.746Z,94.76
2022-12-08T03:59:56.721Z,94.65
2022-12-08T04:00:56.708Z,94.55
2022-12-08T04:01:56.765Z,94.65
2022-12-08T04:02:56.755Z,94.65
2022-12-08T04:03:56.677Z,94.55
2022-12-08T04:04:56.677Z,94.65
2022-12-08T04:05:56.668Z,94.65
2022-12-08T04:06:56.648Z,94.55
2022-12-08T04:07:56.721Z,94.55
2022-12-08T04:08:56.629Z,94.55
2022-12-08T04:09:56.616Z,94.55
2022-12-08T04:10:56.609Z,94.70
2022-12-08T04:11:56.613Z,94.80
2022-12-08T04:12:56.593Z,94.90
2022-12-08T04:13:56.581Z,94.90
2022-12-08T04:14:56.566Z,94.90
2022-12-08T04:15:56.609Z,95.01
2022-12-08T04:16:56.549Z,95.01
2022-12-08T04:17:56.548Z,95.21
2022-12-08T04:18:56.539Z,95.32
2022-12-08T04:19:56.508Z,95.32
2022-12-08T04:20:56.550Z,95.32
2022-12-08T04:21:56.509Z,95.32
2022-12-08T04:22:56.487Z,95.32
2022-12-08T04:24:00.983Z,95.32
2022-12-08T04:24:57.486Z,95.32
2022-12-08T04:25:56.459Z,95.43
2022-12-08T04:26:56.459Z,95.53
2022-12-08T04:27:56.444Z,95.43
2022-12-08T04:28:56.441Z,95.21
2022-12-08T04:29:56.409Z,95.21
2022-12-08T04:30:56.451Z,95.21
2022-12-08T04:31:56.482Z,95.21
2022-12-08T04:32:56.379Z,95.32
2022-12-08T04:33:56.366Z,95.32
2022-12-08T04:34:56.357Z,95.21
2022-12-08T04:35:56.359Z,95.11
2022-12-08T04:36:56.359Z,95.11
2022-12-08T04:37:56.328Z,95.11
2022-12-08T04:38:56.327Z,95.21
2022-12-08T04:39:56.337Z,95.32
2022-12-08T04:40:56.307Z,95.21
2022-12-08T04:41:56.290Z,95.21
2022-12-08T04:42:56.277Z,95.32
2022-12-08T04:43:56.259Z,95.32
2022-12-08T04:44:56.256Z,95.21
2022-12-08T04:45:56.260Z,95.21
2022-12-08T04:46:56.289Z,95.21
2022-12-08T04:47:56.224Z,95.32
2022-12-08T04:48:56.208Z,95.32
2022-12-08T04:49:56.198Z,95.43
2022-12-08T04:50:56.196Z,95.43
2022-12-08T04:51:56.190Z,95.43
2022-12-08T04:52:56.169Z,95.53
2022-12-08T04:53:56.158Z,95.64
2022-12-08T04:54:56.170Z,95.64
2022-12-08T04:55:56.148Z,95.74
2022-12-08T04:56:56.133Z,95.74
2022-12-08T04:57:56.130Z,95.74
2022-12-08T04:58:56.110Z,95.74
2022-12-08T04:59:56.099Z,95.74
2022-12-08T05:00:56.148Z,95.74
2022-12-08T05:01:56.244Z,95.74
2022-12-08T05:02:56.260Z,95.84
2022-12-08T05:03:56.059Z,95.84
2022-12-08T05:04:56.048Z,95.95
2022-12-08T05:05:56.050Z,96.16
2022-12-08T05:06:56.050Z,96.16
2022-12-08T05:07:56.056Z,96.26
2022-12-08T05:08:56.027Z,96.41
2022-12-08T05:09:55.999Z,96.62
2022-12-08T05:10:55.989Z,96.72
2022-12-08T05:11:55.969Z,96.94
2022-12-08T05:12:55.971Z,97.04
2022-12-08T05:13:55.975Z,97.25
2022-12-08T05:14:56.029Z,97.45
2022-12-08T05:15:55.994Z,97.67
2022-12-08T05:16:57.486Z,97.77
2022-12-08T05:17:55.931Z,97.88
2022-12-08T05:18:55.939Z,98.08
2022-12-08T05:19:55.889Z,98.08
2022-12-08T05:20:55.890Z,98.29
2022-12-08T05:21:55.875Z,98.39
2022-12-08T05:22:55.880Z,98.50
2022-12-08T05:23:55.919Z,98.61
2022-12-08T05:24:55.851Z,98.67
2022-12-08T05:25:55.860Z,98.82
2022-12-08T05:26:55.831Z,98.92
2022-12-08T05:28:17.607Z,98.98
2022-12-08T05:28:56.813Z,98.98
2022-12-08T05:29:55.789Z,99.08
2022-12-08T05:30:55.840Z,99.08
2022-12-08T05:31:55.822Z,99.19
2022-12-08T05:32:55.776Z,99.08
2022-12-08T05:33:59.645Z,98.98
2022-12-08T05:34:56.741Z,98.98
2022-12-08T05:35:55.729Z,98.88
2022-12-08T05:36:55.738Z,98.77
2022-12-08T05:37:55.713Z,98.67
2022-12-08T05:38:55.708Z,98.56
2022-12-08T05:39:55.700Z,98.56
2022-12-08T05:40:55.680Z,98.56
2022-12-08T05:41:55.680Z,98.56
2022-12-08T05:42:55.661Z,98.61
2022-12-08T05:43:55.658Z,98.56
2022-12-08T05:44:55.639Z,98.61
2022-12-08T05:45:55.727Z,98.67
2022-12-08T05:46:55.705Z,98.67
2022-12-08T05:47:55.607Z,98.67
2022-12-08T05:48:55.615Z,98.67
2022-12-08T05:49:55.588Z,98.61
2022-12-08T05:50:55.577Z,98.61
2022-12-08T05:51:55.659Z,98.71
2022-12-08T05:52:55.550Z,98.61
2022-12-08T05:53:55.540Z,98.61
2022-12-08T05:54:55.550Z,98.61
2022-12-08T05:55:55.539Z,98.71
2022-12-08T05:56:55.510Z,98.71
2022-12-08T05:57:55.501Z,98.71
2022-12-08T05:58:55.499Z,98.82
2022-12-08T05:59:56.472Z,98.92
2022-12-08T06:00:55.479Z,98.92
2022-12-08T06:01:55.644Z,98.92
2022-12-08T06:02:55.597Z,98.92
2022-12-08T06:03:56.167Z,98.82
2022-12-08T06:04:55.452Z,98.82
2022-12-08T06:05:56.152Z,98.82
2022-12-08T06:06:55.429Z,98.82
2022-12-08T06:07:55.742Z,98.82
2022-12-08T06:08:55.427Z,98.82
2022-12-08T06:09:56.099Z,98.82
2022-12-08T06:10:55.390Z,98.82
2022-12-08T06:11:56.180Z,98.71
2022-12-08T06:12:55.379Z,98.71
2022-12-08T06:13:55.790Z,98.71
2022-12-08T06:14:55.334Z,98.71
2022-12-08T06:15:55.388Z,98.71
2022-12-08T06:16:55.359Z,98.82
2022-12-08T06:17:55.310Z,98.82
2022-12-08T06:18:55.298Z,98.82
2022-12-08T06:19:55.303Z,98.71
2022-12-08T06:20:55.298Z,98.71
2022-12-08T06:21:55.270Z,98.71
2022-12-08T06:22:55.264Z,98.61
2022-12-08T06:23:55.948Z,98.61
2022-12-08T06:24:55.240Z,98.50
2022-12-08T06:25:55.240Z,98.50
2022-12-08T06:26:55.250Z,98.61
2022-12-08T06:27:55.929Z,98.61
2022-12-08T06:28:55.191Z,98.61
2022-12-08T06:29:55.880Z,98.61
2022-12-08T06:30:55.170Z,98.61
2022-12-08T06:31:55.972Z,98.50
2022-12-08T06:32:55.151Z,98.50
2022-12-08T06:33:55.862Z,98.39
2022-12-08T06:34:55.130Z,98.39
2022-12-08T06:35:56.019Z,98.39
2022-12-08T06:36:55.110Z,98.29
2022-12-08T06:37:55.122Z,98.24
2022-12-08T06:38:55.092Z,98.34
2022-12-08T06:39:55.800Z,98.34
2022-12-08T06:40:55.082Z,98.34
2022-12-08T06:41:55.777Z,98.34
2022-12-08T06:42:55.051Z,98.24
2022-12-08T06:43:55.049Z,98.24
2022-12-08T06:44:55.040Z,98.34
2022-12-08T06:45:55.802Z,98.34
2022-12-08T06:46:55.020Z,98.44
2022-12-08T06:47:55.718Z,98.55
2022-12-08T06:48:54.983Z,98.65
2022-12-08T06:49:55.674Z,98.75
2022-12-08T06:50:54.990Z,98.75
2022-12-08T06:51:54.976Z,98.75
2022-12-08T06:53:04.516Z,98.86
2022-12-08T06:53:55.959Z,98.86
2022-12-08T06:54:54.923Z,98.97
2022-12-08T06:55:59.588Z,99.07
2022-12-08T06:56:55.922Z,99.18
2022-12-08T06:57:54.910Z,99.28
2022-12-08T06:58:54.892Z,99.38
2022-12-08T06:59:54.895Z,99.38
2022-12-08T07:00:55.124Z,99.59
2022-12-08T07:01:54.876Z,99.59
2022-12-08T07:02:54.902Z,99.59
2022-12-08T07:03:54.889Z,99.70
2022-12-08T07:04:54.821Z,99.70
2022-12-08T07:05:57.745Z,99.70
2022-12-08T07:06:55.870Z,99.70
2022-12-08T07:07:54.958Z,99.80
2022-12-08T07:08:54.780Z,99.91
2022-12-08T07:09:54.764Z,99.99
2022-12-08T07:10:54.759Z,99.96
2022-12-08T07:11:54.743Z,99.96
2022-12-08T07:12:54.732Z,99.96
2022-12-08T07:13:54.740Z,99.96
2022-12-08T07:14:54.711Z,99.99
2022-12-08T07:15:54.713Z,99.99
2022-12-08T07:16:54.748Z,99.99
2022-12-08T07:17:59.647Z,99.99
2022-12-08T07:18:55.694Z,99.96
2022-12-08T07:19:54.657Z,99.96
2022-12-08T07:20:54.723Z,99.86
2022-12-08T07:21:54.640Z,99.76
2022-12-08T07:22:54.632Z,99.76
2022-12-08T07:23:57.889Z,99.76
2022-12-08T07:24:54.612Z,99.86
2022-12-08T07:25:54.591Z,99.96
2022-12-08T07:26:54.592Z,99.96
2022-12-08T07:27:54.571Z,99.99
2022-12-08T07:28:54.572Z,99.99
2022-12-08T07:29:54.571Z,99.99
2022-12-08T07:30:55.340Z,99.99
2022-12-08T07:31:54.548Z,99.99
2022-12-08T07:32:55.249Z,99.99
2022-12-08T07:33:54.532Z,99.99
2022-12-08T07:34:55.236Z,99.99
2022-12-08T07:35:54.511Z,99.99
2022-12-08T07:36:55.482Z,99.99
2022-12-08T07:37:54.500Z,99.99
2022-12-08T07:38:54.588Z,99.99
2022-12-08T07:39:54.479Z,99.99
2022-12-08T07:40:54.539Z,99.99
2022-12-08T07:41:54.468Z,99.99
2022-12-08T07:42:55.165Z,99.99
2022-12-08T07:43:54.416Z,99.99
2022-12-08T07:44:54.551Z,99.99
2022-12-08T07:45:54.452Z,99.99
2022-12-08T07:46:54.457Z,99.99
2022-12-08T07:47:54.404Z,99.99
2022-12-08T07:48:54.385Z,99.99
2022-12-08T07:49:54.352Z,99.99
2022-12-08T07:50:54.340Z,99.99
2022-12-08T07:51:54.343Z,99.99
2022-12-08T07:52:54.321Z,99.99
2022-12-08T07:53:55.170Z,99.99
2022-12-08T07:54:54.302Z,99.99
2022-12-08T07:55:54.291Z,99.99
2022-12-08T07:56:54.282Z,99.99
2022-12-08T07:57:54.273Z,99.99
2022-12-08T07:58:54.263Z,99.99
2022-12-08T07:59:54.256Z,99.99
2022-12-08T08:00:54.367Z,99.99
2022-12-08T08:02:19.497Z,99.99
2022-12-08T08:02:55.275Z,99.99
2022-12-08T08:03:54.221Z,99.99
2022-12-08T08:04:54.298Z,99.99
2022-12-08T08:05:54.182Z,99.99
2022-12-08T08:06:54.191Z,99.99
2022-12-08T08:07:54.211Z,99.98
2022-12-08T08:08:54.153Z,99.98
2022-12-08T08:09:54.170Z,99.88
2022-12-08T08:10:54.131Z,99.88
2022-12-08T08:12:22.279Z,99.88
2022-12-08T08:12:55.113Z,99.77
2022-12-08T08:13:54.123Z,99.66
2022-12-08T08:14:54.114Z,99.66
2022-12-08T08:15:54.174Z,99.66
2022-12-08T08:16:54.224Z,99.66
2022-12-08T08:17:54.081Z,99.56
2022-12-08T08:18:54.072Z,99.56
2022-12-08T08:19:54.053Z,99.41
2022-12-08T08:20:54.031Z,99.31
2022-12-08T08:21:54.043Z,99.31
2022-12-08T08:22:54.012Z,99.20
2022-12-08T08:23:54.016Z,99.20
2022-12-08T08:24:53.993Z,99.20
2022-12-08T08:25:53.982Z,99.10
2022-12-08T08:26:54.004Z,98.99
2022-12-08T08:27:53.962Z,98.99
2022-12-08T08:28:53.942Z,98.89
2022-12-08T08:29:53.941Z,98.89
2022-12-08T08:30:53.978Z,98.89
2022-12-08T08:31:53.922Z,98.89
2022-12-08T08:32:53.911Z,98.89
2022-12-08T08:33:53.930Z,98.89
2022-12-08T08:34:53.884Z,98.79
2022-12-08T08:35:53.873Z,98.74
2022-12-08T08:36:53.924Z,98.63
2022-12-08T08:37:53.893Z,98.63
2022-12-08T08:38:53.842Z,98.53
2022-12-08T08:39:53.843Z,98.53
2022-12-08T08:40:53.829Z,98.43
2022-12-08T08:41:53.814Z,98.53
2022-12-08T08:42:53.800Z,98.43
2022-12-08T08:43:53.849Z,98.43
2022-12-08T08:44:53.789Z,98.43
2022-12-08T08:45:54.538Z,98.32
2022-12-08T08:46:53.880Z,98.32
2022-12-08T08:47:54.473Z,98.32
2022-12-08T08:48:53.766Z,98.22
2022-12-08T08:49:54.454Z,98.22
2022-12-08T08:50:53.753Z,98.22
2022-12-08T08:51:54.423Z,98.18
2022-12-08T08:52:53.713Z,98.18
2022-12-08T08:53:54.033Z,98.07
2022-12-08T08:54:53.678Z,97.97
2022-12-08T08:55:53.832Z,97.86
2022-12-08T08:56:53.680Z,97.75
2022-12-08T08:57:54.333Z,97.65
2022-12-08T08:58:53.647Z,97.55
2022-12-08T08:59:53.714Z,97.34
2022-12-08T09:00:53.629Z,97.24
2022-12-08T09:01:53.783Z,97.03
2022-12-08T09:02:53.593Z,96.82
2022-12-08T09:03:53.594Z,96.77
2022-12-08T09:04:53.635Z,96.77
2022-12-08T09:05:53.739Z,96.67
2022-12-08T09:06:53.563Z,96.67
2022-12-08T09:07:53.654Z,96.56
2022-12-08T09:08:53.547Z,96.56
2022-12-08T09:09:58.344Z,96.56
2022-12-08T09:10:54.530Z,96.56
2022-12-08T09:11:53.512Z,96.56
2022-12-08T09:12:53.493Z,96.46
2022-12-08T09:13:53.526Z,96.36
2022-12-08T09:14:53.466Z,96.36
2022-12-08T09:15:53.489Z,96.25
2022-12-08T09:16:53.465Z,96.04
2022-12-08T09:17:53.540Z,95.94
2022-12-08T09:18:53.440Z,95.79
2022-12-08T09:19:53.422Z,95.79
2022-12-08T09:20:53.423Z,95.89
2022-12-08T09:21:53.402Z,95.89
2022-12-08T09:22:53.384Z,95.89
2022-12-08T09:23:53.404Z,95.89
2022-12-08T09:24:53.372Z,95.89
2022-12-08T09:25:53.366Z,95.89
2022-12-08T09:26:53.354Z,95.79
2022-12-08T09:27:53.341Z,95.79
2022-12-08T09:28:53.342Z,95.79
2022-12-08T09:29:53.333Z,95.68
2022-12-08T09:30:53.341Z,95.79
2022-12-08T09:31:53.407Z,95.64
2022-12-08T09:32:53.283Z,95.58
2022-12-08T09:33:53.287Z,95.43
2022-12-08T09:34:53.274Z,95.33
2022-12-08T09:35:53.274Z,95.33
2022-12-08T09:36:53.262Z,95.23
2022-12-08T09:37:53.235Z,95.23
2022-12-08T09:38:53.225Z,95.33
2022-12-08T09:39:53.228Z,95.33
2022-12-08T09:40:53.223Z,95.23
2022-12-08T09:41:53.194Z,95.23
2022-12-08T09:42:53.184Z,95.12
2022-12-08T09:43:53.186Z,95.02
2022-12-08T09:44:53.164Z,94.98
2022-12-08T09:45:53.153Z,94.87
2022-12-08T09:46:53.173Z,94.76
2022-12-08T09:47:53.132Z,94.66
2022-12-08T09:48:53.125Z,94.66
2022-12-08T09:49:53.112Z,94.56
2022-12-08T09:50:53.095Z,94.24
2022-12-08T09:51:53.117Z,94.04
2022-12-08T09:52:53.085Z,94.14
2022-12-08T09:53:53.086Z,94.24
2022-12-08T09:54:53.055Z,94.14
2022-12-08T09:55:53.051Z,94.14
2022-12-08T09:56:54.645Z,94.10
2022-12-08T09:57:56.118Z,94.10
2022-12-08T09:58:54.664Z,93.99
2022-12-08T09:59:53.031Z,93.99
2022-12-08T10:00:53.075Z,94.10
2022-12-08T10:01:53.119Z,94.10
2022-12-08T10:02:54.074Z,93.89
2022-12-08T10:03:53.053Z,93.68
2022-12-08T10:04:53.068Z,93.54
2022-12-08T10:05:52.967Z,93.43
2022-12-08T10:06:53.049Z,93.43
2022-12-08T10:07:52.991Z,93.33
2022-12-08T10:08:53.305Z,93.33
2022-12-08T10:09:52.914Z,93.33
2022-12-08T10:10:52.945Z,93.18
2022-12-08T10:11:52.897Z,92.35
2022-12-08T10:12:52.904Z,92.24
2022-12-08T10:13:52.886Z,92.14
2022-12-08T10:14:52.856Z,91.93
2022-12-08T10:15:52.921Z,91.93
2022-12-08T10:16:52.887Z,91.89
2022-12-08T10:17:52.824Z,91.58
2022-12-08T10:18:52.813Z,91.58
2022-12-08T10:19:52.805Z,91.27
2022-12-08T10:20:52.793Z,91.16
2022-12-08T10:21:52.794Z,91.06
2022-12-08T10:22:53.086Z,90.60
2022-12-08T10:23:52.884Z,90.70
2022-12-08T10:24:52.745Z,90.50
2022-12-08T10:25:52.743Z,90.25
2022-12-08T10:26:52.747Z,89.83
2022-12-08T10:27:53.665Z,89.58
2022-12-08T10:28:53.082Z,89.27
2022-12-08T10:29:53.426Z,88.82
2022-12-08T10:30:52.707Z,88.51
2022-12-08T10:31:52.760Z,88.46
2022-12-08T10:32:52.670Z,87.38
2022-12-08T10:33:52.664Z,86.62
2022-12-08T10:34:56.344Z,86.62
2022-12-08T10:35:52.635Z,85.96
2022-12-08T10:36:52.650Z,85.50
2022-12-08T10:37:52.613Z,84.64
2022-12-08T10:38:52.595Z,84.12
2022-12-08T10:39:52.594Z,83.25
2022-12-08T10:40:52.587Z,83.15
2022-12-08T10:41:52.587Z,82.43
2022-12-08T10:42:52.574Z,82.39
2022-12-08T10:43:52.569Z,82.60
2022-12-08T10:44:52.535Z,82.29
2022-12-08T10:45:52.534Z,81.98
2022-12-08T10:46:52.578Z,81.25
2022-12-08T10:47:55.507Z,81.15
2022-12-08T10:48:52.499Z,81.05
2022-12-08T10:49:52.496Z,80.84
2022-12-08T10:50:52.486Z,80.94
2022-12-08T10:51:52.466Z,81.46
2022-12-08T10:52:52.469Z,81.05
2022-12-08T10:53:52.479Z,81.05
2022-12-08T10:54:52.435Z,80.74
2022-12-08T10:55:52.425Z,80.74
2022-12-08T10:56:52.408Z,80.53
2022-12-08T10:57:52.404Z,80.32
2022-12-08T10:58:52.406Z,80.32
2022-12-08T10:59:52.383Z,80.57
2022-12-08T11:00:52.469Z,79.63
2022-12-08T11:01:52.581Z,80.05
2022-12-08T11:02:52.407Z,80.67
2022-12-08T11:03:52.366Z,80.84
2022-12-08T11:04:52.347Z,80.53
2022-12-08T11:05:52.328Z,80.63
2022-12-08T11:06:52.304Z,80.74
2022-12-08T11:07:52.365Z,80.43
2022-12-08T11:08:52.280Z,80.11
2022-12-08T11:09:52.299Z,79.91
2022-12-08T11:10:52.265Z,80.84
2022-12-08T11:11:52.292Z,80.84
2022-12-08T11:12:52.246Z,80.84
2022-12-08T11:13:52.960Z,80.32
2022-12-08T11:14:52.247Z,80.11
2022-12-08T11:15:52.937Z,80.01
2022-12-08T11:16:52.292Z,79.91
2022-12-08T11:17:57.534Z,80.43
2022-12-08T11:18:52.187Z,80.22
2022-12-08T11:19:53.158Z,79.70
2022-12-08T11:20:52.190Z,80.11
2022-12-08T11:21:52.897Z,79.91
2022-12-08T11:22:52.168Z,80.22
2022-12-08T11:23:52.144Z,79.80
2022-12-08T11:24:52.119Z,79.91
2022-12-08T11:25:52.136Z,80.01
2022-12-08T11:26:52.099Z,79.70
2022-12-08T11:27:52.092Z,79.19
2022-12-08T11:28:52.086Z,78.88
2022-12-08T11:29:52.067Z,78.46
2022-12-08T11:30:52.059Z,78.36
2022-12-08T11:31:52.154Z,78.88
2022-12-08T11:32:52.028Z,79.39
2022-12-08T11:33:52.026Z,79.49
2022-12-08T11:34:52.047Z,79.80
2022-12-08T11:35:52.002Z,80.22
2022-12-08T11:36:52.011Z,80.39
2022-12-08T11:37:51.980Z,80.60
2022-12-08T11:38:51.969Z,79.87
2022-12-08T11:39:51.987Z,79.97
2022-12-08T11:40:51.949Z,79.36
2022-12-08T11:41:51.950Z,79.56
2022-12-08T11:42:51.968Z,80.39
2022-12-08T11:43:51.919Z,80.18
2022-12-08T11:44:51.919Z,79.94
2022-12-08T11:45:51.929Z,79.01
2022-12-08T11:46:51.899Z,78.08
2022-12-08T11:47:55.755Z,78.70
2022-12-08T11:48:51.878Z,79.22
2022-12-08T11:49:51.852Z,79.01
2022-12-08T11:50:51.871Z,77.67
2022-12-08T11:51:51.895Z,77.25
2022-12-08T11:52:51.881Z,77.67
2022-12-08T11:53:51.810Z,77.77
2022-12-08T11:54:51.801Z,77.98
2022-12-08T11:55:51.821Z,78.70
2022-12-08T11:56:51.779Z,79.01
2022-12-08T11:57:51.852Z,79.11
2022-12-08T11:58:51.751Z,78.70
2022-12-08T11:59:51.782Z,78.49
2022-12-08T12:00:51.753Z,78.18
2022-12-08T12:01:51.788Z,78.49
2022-12-08T12:02:51.823Z,78.49
2022-12-08T12:03:51.711Z,78.49
2022-12-08T12:04:51.691Z,78.80
2022-12-08T12:06:55.147Z,77.98
2022-12-08T12:07:51.771Z,76.22
2022-12-08T12:08:51.649Z,76.12
2022-12-08T12:09:51.649Z,75.49
2022-12-08T12:10:51.635Z,75.19
2022-12-08T12:11:51.631Z,75.49
2022-12-08T12:12:51.624Z,75.81
2022-12-08T12:13:51.602Z,75.32
2022-12-08T12:14:51.591Z,75.43
2022-12-08T12:15:51.582Z,75.74
2022-12-08T12:16:51.645Z,76.15
2022-12-08T12:17:51.633Z,76.98
2022-12-08T12:18:51.553Z,77.60
2022-12-08T12:19:51.531Z,77.91
2022-12-08T12:20:51.532Z,76.53
2022-12-08T12:21:51.524Z,75.91
2022-12-08T12:22:51.521Z,76.32
2022-12-08T12:23:51.492Z,76.53
2022-12-08T12:24:51.486Z,76.01
2022-12-08T12:25:51.477Z,75.91
2022-12-08T12:26:51.488Z,75.70
2022-12-08T12:27:57.148Z,75.91
2022-12-08T12:28:52.447Z,75.60
2022-12-08T12:29:55.756Z,75.91
2022-12-08T12:30:51.459Z,76.12
2022-12-08T12:31:51.408Z,76.12
2022-12-08T12:32:51.424Z,76.43
2022-12-08T12:33:51.387Z,76.73
2022-12-08T12:34:51.408Z,77.25
2022-12-08T12:35:51.363Z,77.77
2022-12-08T12:36:51.362Z,77.87
2022-12-08T12:37:51.343Z,78.49
2022-12-08T12:38:51.355Z,77.67
2022-12-08T12:39:51.321Z,77.56
2022-12-08T12:40:51.345Z,77.98
2022-12-08T12:41:51.304Z,78.49
2022-12-08T12:42:51.296Z,78.28
2022-12-08T12:43:51.303Z,78.70
2022-12-08T12:44:51.275Z,78.28
2022-12-08T12:45:51.289Z,78.70
2022-12-08T12:46:51.253Z,78.97
2022-12-08T12:47:56.253Z,79.38
2022-12-08T12:48:52.233Z,79.08
2022-12-08T12:49:51.215Z,79.08
2022-12-08T12:50:51.225Z,78.14
2022-12-08T12:51:51.193Z,78.05
2022-12-08T12:52:51.186Z,78.14
2022-12-08T12:53:51.227Z,78.05